sensor_id;sensor_type;location;lat;lon;timestamp;pressure;altitude;pressure_sealevel;temperature;humidity
21863;BME280;11096;51.338;12.524;2023-01-10T02:37:59;99644.22;;;3.92;nan
21863;BME280;11096;51.338;12.524;2023-01-10T02:43:07;99645.06;;;3.93;nan
21863;BME280;11096;51.338;12.524;2023-01-10T02:45:58;99642.72;;;3.88;nan
21863;BME280;11096;51.338;12.524;2023-01-10T02:48:25;99646.34;;;3.84;nan
21863;BME280;11096;51.338;12.524;2023-01-10T02:51:07;99650.72;;;3.82;nan
21863;BME280;11096;51.338;12.524;2023-01-10T02:53:47;99657.84;;;3.77;nan
21863;BME280;11096;51.338;12.524;2023-01-10T03:10:27;99695.91;;;3.69;nan
21863;BME280;11096;51.338;12.524;2023-01-10T03:12:58;99694.84;;;3.73;nan
21863;BME280;11096;51.338;12.524;2023-01-10T03:15:28;99695.84;;;3.70;nan
21863;BME280;11096;51.338;12.524;2023-01-10T03:17:58;99688.06;;;3.72;nan
21863;BME280;11096;51.338;12.524;2023-01-10T03:20:25;99700.28;;;3.66;nan
21863;BME280;11096;51.338;12.524;2023-01-10T03:22:54;99704.69;;;3.64;nan
21863;BME280;11096;51.338;12.524;2023-01-10T03:25:23;99694.84;;;3.55;nan
21863;BME280;11096;51.338;12.524;2023-01-10T03:27:54;99713.84;;;3.51;nan
21863;BME280;11096;51.338;12.524;2023-01-10T03:33:00;99725.47;;;3.41;nan
21863;BME280;11096;51.338;12.524;2023-01-10T03:35:37;99733.84;;;3.44;nan
21863;BME280;11096;51.338;12.524;2023-01-10T03:38:15;99736.41;;;3.44;nan
21863;BME280;11096;51.338;12.524;2023-01-10T03:43:44;99772.69;;;3.57;nan
21863;BME280;11096;51.338;12.524;2023-01-10T03:46:49;99779.09;;;3.66;nan
21863;BME280;11096;51.338;12.524;2023-01-10T03:49:16;99772.09;;;3.70;nan
21863;BME280;11096;51.338;12.524;2023-01-10T03:51:43;99781.25;;;3.75;nan
21863;BME280;11096;51.338;12.524;2023-01-10T03:54:10;99787.03;;;3.80;nan
21863;BME280;11096;51.338;12.524;2023-01-10T03:56:46;99787.56;;;3.87;nan
21863;BME280;11096;51.338;12.524;2023-01-10T03:59:14;99799.34;;;3.91;nan
21863;BME280;11096;51.338;12.524;2023-01-10T04:01:40;99802.84;;;3.90;nan
21863;BME280;11096;51.338;12.524;2023-01-10T04:04:06;99795.97;;;3.91;nan
21863;BME280;11096;51.338;12.524;2023-01-10T04:06:31;99804.22;;;3.97;nan
21863;BME280;11096;51.338;12.524;2023-01-10T04:08:56;99806.84;;;3.96;nan
21863;BME280;11096;51.338;12.524;2023-01-10T04:11:22;99810.91;;;4.01;nan
21863;BME280;11096;51.338;12.524;2023-01-10T04:13:47;99813.75;;;3.95;nan
21863;BME280;11096;51.338;12.524;2023-01-10T04:16:12;99815.94;;;4.03;nan
21863;BME280;11096;51.338;12.524;2023-01-10T04:18:38;99824.50;;;4.03;nan
21863;BME280;11096;51.338;12.524;2023-01-10T04:21:03;99831.16;;;4.07;nan
21863;BME280;11096;51.338;12.524;2023-01-10T04:23:29;99837.34;;;4.03;nan
21863;BME280;11096;51.338;12.524;2023-01-10T04:25:54;99839.66;;;4.09;nan
21863;BME280;11096;51.338;12.524;2023-01-10T04:28:19;99844.09;;;4.06;nan
21863;BME280;11096;51.338;12.524;2023-01-10T04:30:45;99847.50;;;4.06;nan
21863;BME280;11096;51.338;12.524;2023-01-10T04:33:10;99860.28;;;4.08;nan
21863;BME280;11096;51.338;12.524;2023-01-10T04:35:36;99861.41;;;4.02;nan
21863;BME280;11096;51.338;12.524;2023-01-10T04:38:02;99864.03;;;4.01;nan
21863;BME280;11096;51.338;12.524;2023-01-10T04:40:27;99865.72;;;4.02;nan
21863;BME280;11096;51.338;12.524;2023-01-10T04:42:52;99868.34;;;4.00;nan
21863;BME280;11096;51.338;12.524;2023-01-10T04:45:18;99870.88;;;4.02;nan
21863;BME280;11096;51.338;12.524;2023-01-10T04:47:51;99878.50;;;4.03;nan
21863;BME280;11096;51.338;12.524;2023-01-10T04:50:20;99892.13;;;4.05;nan
21863;BME280;11096;51.338;12.524;2023-01-10T04:52:46;99892.13;;;4.05;nan
21863;BME280;11096;51.338;12.524;2023-01-10T04:55:11;99892.88;;;4.07;nan
21863;BME280;11096;51.338;12.524;2023-01-10T04:57:37;99896.38;;;4.06;nan
21863;BME280;11096;51.338;12.524;2023-01-10T05:00:02;99903.94;;;4.09;nan
21863;BME280;11096;51.338;12.524;2023-01-10T05:02:28;99908.25;;;4.09;nan
21863;BME280;11096;51.338;12.524;2023-01-10T05:04:53;99904.63;;;4.13;nan
21863;BME280;11096;51.338;12.524;2023-01-10T05:07:19;99918.38;;;4.12;nan
21863;BME280;11096;51.338;12.524;2023-01-10T05:09:44;99913.19;;;4.14;nan
21863;BME280;11096;51.338;12.524;2023-01-10T05:12:09;99915.75;;;4.14;nan
21863;BME280;11096;51.338;12.524;2023-01-10T05:14:35;99924.97;;;4.18;nan
21863;BME280;11096;51.338;12.524;2023-01-10T05:17:00;99925.91;;;4.17;nan
21863;BME280;11096;51.338;12.524;2023-01-10T05:19:26;99935.41;;;4.15;nan
21863;BME280;11096;51.338;12.524;2023-01-10T05:21:51;99938.81;;;4.15;nan
21863;BME280;11096;51.338;12.524;2023-01-10T05:24:17;99940.56;;;4.15;nan
21863;BME280;11096;51.338;12.524;2023-01-10T05:26:43;99951.63;;;4.17;nan
21863;BME280;11096;51.338;12.524;2023-01-10T05:29:10;99954.09;;;4.18;nan
21863;BME280;11096;51.338;12.524;2023-01-10T05:31:35;99966.91;;;4.20;nan
21863;BME280;11096;51.338;12.524;2023-01-10T05:34:01;99967.19;;;4.14;nan
21863;BME280;11096;51.338;12.524;2023-01-10T05:36:26;99970.44;;;4.17;nan
21863;BME280;11096;51.338;12.524;2023-01-10T05:38:52;99976.50;;;4.16;nan
21863;BME280;11096;51.338;12.524;2023-01-10T05:41:17;99980.75;;;4.17;nan
21863;BME280;11096;51.338;12.524;2023-01-10T05:43:42;99980.69;;;4.19;nan
21863;BME280;11096;51.338;12.524;2023-01-10T05:46:08;99988.44;;;4.17;nan
21863;BME280;11096;51.338;12.524;2023-01-10T05:48:34;99992.75;;;4.17;nan
21863;BME280;11096;51.338;12.524;2023-01-10T05:50:59;99997.00;;;4.18;nan
21863;BME280;11096;51.338;12.524;2023-01-10T05:53:25;100001.88;;;4.24;nan
21863;BME280;11096;51.338;12.524;2023-01-10T05:55:52;100015.50;;;4.26;nan
21863;BME280;11096;51.338;12.524;2023-01-10T05:58:18;100006.09;;;4.25;nan
21863;BME280;11096;51.338;12.524;2023-01-10T06:00:44;100018.97;;;4.25;nan
21863;BME280;11096;51.338;12.524;2023-01-10T06:03:09;100016.41;;;4.25;nan
21863;BME280;11096;51.338;12.524;2023-01-10T06:05:34;100016.25;;;4.28;nan
21863;BME280;11096;51.338;12.524;2023-01-10T06:08:00;100024.81;;;4.28;nan
21863;BME280;11096;51.338;12.524;2023-01-10T06:10:25;100036.72;;;4.31;nan
21863;BME280;11096;51.338;12.524;2023-01-10T06:12:50;100033.22;;;4.32;nan
21863;BME280;11096;51.338;12.524;2023-01-10T06:15:16;100040.94;;;4.32;nan
21863;BME280;11096;51.338;12.524;2023-01-10T06:17:41;100050.31;;;4.33;nan
21863;BME280;11096;51.338;12.524;2023-01-10T06:20:09;100052.78;;;4.36;nan
21863;BME280;11096;51.338;12.524;2023-01-10T06:22:35;100050.22;;;4.36;nan
21863;BME280;11096;51.338;12.524;2023-01-10T06:25:01;100057.84;;;4.38;nan
21863;BME280;11096;51.338;12.524;2023-01-10T06:27:26;100063.84;;;4.38;nan
21863;BME280;11096;51.338;12.524;2023-01-10T06:29:51;100068.00;;;4.41;nan
21863;BME280;11096;51.338;12.524;2023-01-10T06:32:17;100075.66;;;4.42;nan
21863;BME280;11096;51.338;12.524;2023-01-10T06:34:42;100082.34;;;4.46;nan
21863;BME280;11096;51.338;12.524;2023-01-10T06:37:07;100082.34;;;4.46;nan
21863;BME280;11096;51.338;12.524;2023-01-10T06:39:33;100085.69;;;4.48;nan
21863;BME280;11096;51.338;12.524;2023-01-10T06:41:58;100097.38;;;4.56;nan
21863;BME280;11096;51.338;12.524;2023-01-10T06:44:24;100104.19;;;4.57;nan
21863;BME280;11096;51.338;12.524;2023-01-10T06:46:49;100114.47;;;4.57;nan
21863;BME280;11096;51.338;12.524;2023-01-10T06:49:15;100117.19;;;4.54;nan
21863;BME280;11096;51.338;12.524;2023-01-10T06:51:41;100122.41;;;4.52;nan
21863;BME280;11096;51.338;12.524;2023-01-10T06:54:06;100125.78;;;4.52;nan
21863;BME280;11096;51.338;12.524;2023-01-10T06:56:32;100132.84;;;4.49;nan
21863;BME280;11096;51.338;12.524;2023-01-10T06:58:57;100136.31;;;4.48;nan
21863;BME280;11096;51.338;12.524;2023-01-10T07:01:22;100140.56;;;4.49;nan
21863;BME280;11096;51.338;12.524;2023-01-10T07:03:48;100150.91;;;4.47;nan
21863;BME280;11096;51.338;12.524;2023-01-10T07:06:14;100155.06;;;4.50;nan
21863;BME280;11096;51.338;12.524;2023-01-10T07:08:41;100158.50;;;4.50;nan
21863;BME280;11096;51.338;12.524;2023-01-10T07:11:08;100171.22;;;4.54;nan
21863;BME280;11096;51.338;12.524;2023-01-10T07:13:34;100164.28;;;4.56;nan
21863;BME280;11096;51.338;12.524;2023-01-10T07:16:11;100167.75;;;4.55;nan
21863;BME280;11096;51.338;12.524;2023-01-10T07:18:39;100180.56;;;4.56;nan
21863;BME280;11096;51.338;12.524;2023-01-10T07:21:05;100192.38;;;4.60;nan
21863;BME280;11096;51.338;12.524;2023-01-10T07:23:31;100197.47;;;4.62;nan
21863;BME280;11096;51.338;12.524;2023-01-10T07:26:01;100195.66;;;4.64;nan
21863;BME280;11096;51.338;12.524;2023-01-10T07:28:26;100199.97;;;4.63;nan
21863;BME280;11096;51.338;12.524;2023-01-10T07:30:52;100199.22;;;4.61;nan
21863;BME280;11096;51.338;12.524;2023-01-10T07:33:17;100205.13;;;4.63;nan
21863;BME280;11096;51.338;12.524;2023-01-10T07:35:42;100207.72;;;4.63;nan
21863;BME280;11096;51.338;12.524;2023-01-10T07:38:08;100208.53;;;4.64;nan
21863;BME280;11096;51.338;12.524;2023-01-10T07:40:34;100211.75;;;4.69;nan
21863;BME280;11096;51.338;12.524;2023-01-10T07:43:01;100223.69;;;4.70;nan
21863;BME280;11096;51.338;12.524;2023-01-10T07:45:27;100228.03;;;4.69;nan
21863;BME280;11096;51.338;12.524;2023-01-10T07:48:01;100242.50;;;4.72;nan
21863;BME280;11096;51.338;12.524;2023-01-10T07:50:28;100237.25;;;4.75;nan
21863;BME280;11096;51.338;12.524;2023-01-10T07:52:54;100245.66;;;4.79;nan
21863;BME280;11096;51.338;12.524;2023-01-10T07:55:20;100243.06;;;4.79;nan
21863;BME280;11096;51.338;12.524;2023-01-10T07:57:45;100246.47;;;4.79;nan
21863;BME280;11096;51.338;12.524;2023-01-10T08:00:11;100257.69;;;4.78;nan
21863;BME280;11096;51.338;12.524;2023-01-10T08:02:37;100265.56;;;4.75;nan
21863;BME280;11096;51.338;12.524;2023-01-10T08:05:02;100263.72;;;4.77;nan
21863;BME280;11096;51.338;12.524;2023-01-10T08:07:29;100264.38;;;4.82;nan
21863;BME280;11096;51.338;12.524;2023-01-10T08:09:54;100267.72;;;4.84;nan
21863;BME280;11096;51.338;12.524;2023-01-10T08:12:20;100277.03;;;4.87;nan
21863;BME280;11096;51.338;12.524;2023-01-10T08:14:49;100279.63;;;4.87;nan
21863;BME280;11096;51.338;12.524;2023-01-10T08:17:14;100274.47;;;4.87;nan
21863;BME280;11096;51.338;12.524;2023-01-10T08:19:39;100282.97;;;4.89;nan
21863;BME280;11096;51.338;12.524;2023-01-10T08:22:05;100292.44;;;4.88;nan
21863;BME280;11096;51.338;12.524;2023-01-10T08:24:30;100296.63;;;4.91;nan
21863;BME280;11096;51.338;12.524;2023-01-10T08:26:58;100301.97;;;4.86;nan
21863;BME280;11096;51.338;12.524;2023-01-10T08:29:24;100310.59;;;4.85;nan
21863;BME280;11096;51.338;12.524;2023-01-10T08:31:49;100305.19;;;4.91;nan
21863;BME280;11096;51.338;12.524;2023-01-10T08:34:15;100308.38;;;4.97;nan
21863;BME280;11096;51.338;12.524;2023-01-10T08:36:40;100317.53;;;5.04;nan
21863;BME280;11096;51.338;12.524;2023-01-10T08:39:07;100315.59;;;5.09;nan
21863;BME280;11096;51.338;12.524;2023-01-10T08:41:32;100324.09;;;5.11;nan
21863;BME280;11096;51.338;12.524;2023-01-10T08:43:57;100324.03;;;5.12;nan
21863;BME280;11096;51.338;12.524;2023-01-10T08:46:23;100336.97;;;5.11;nan
21863;BME280;11096;51.338;12.524;2023-01-10T08:48:48;100331.81;;;5.11;nan
21863;BME280;11096;51.338;12.524;2023-01-10T08:51:14;100339.50;;;5.12;nan
21863;BME280;11096;51.338;12.524;2023-01-10T08:53:40;100352.44;;;5.11;nan
21863;BME280;11096;51.338;12.524;2023-01-10T08:56:07;100354.81;;;5.15;nan
21863;BME280;11096;51.338;12.524;2023-01-10T08:58:32;100348.34;;;5.26;nan
21863;BME280;11096;51.338;12.524;2023-01-10T09:00:57;100347.78;;;5.19;nan
21863;BME280;11096;51.338;12.524;2023-01-10T09:03:23;100358.47;;;5.30;nan
21863;BME280;11096;51.338;12.524;2023-01-10T09:05:48;100358.25;;;5.35;nan
21863;BME280;11096;51.338;12.524;2023-01-10T09:08:14;100355.75;;;5.33;nan
21863;BME280;11096;51.338;12.524;2023-01-10T09:10:39;100360.06;;;5.33;nan
21863;BME280;11096;51.338;12.524;2023-01-10T09:13:06;100367.34;;;5.23;nan
21863;BME280;11096;51.338;12.524;2023-01-10T09:15:33;100359.13;;;5.15;nan
21863;BME280;11096;51.338;12.524;2023-01-10T09:18:01;100359.56;;;5.25;nan
21863;BME280;11096;51.338;12.524;2023-01-10T09:20:29;100368.19;;;5.24;nan
21863;BME280;11096;51.338;12.524;2023-01-10T09:22:56;100374.94;;;5.26;nan
21863;BME280;11096;51.338;12.524;2023-01-10T09:25:22;100373.97;;;5.29;nan
21863;BME280;11096;51.338;12.524;2023-01-10T09:27:55;100379.91;;;5.31;nan
21863;BME280;11096;51.338;12.524;2023-01-10T09:30:21;100379.22;;;5.27;nan
21863;BME280;11096;51.338;12.524;2023-01-10T09:32:51;100380.72;;;5.31;nan
21863;BME280;11096;51.338;12.524;2023-01-10T09:35:17;100384.09;;;5.33;nan
21863;BME280;11096;51.338;12.524;2023-01-10T09:37:42;100385.69;;;5.36;nan
21863;BME280;11096;51.338;12.524;2023-01-10T09:40:09;100379.47;;;5.42;nan
21863;BME280;11096;51.338;12.524;2023-01-10T09:42:49;100383.50;;;5.47;nan
21863;BME280;11096;51.338;12.524;2023-01-10T09:48:04;100388.84;;;5.43;nan
21863;BME280;11096;51.338;12.524;2023-01-10T09:51:18;100384.13;;;5.52;nan
21863;BME280;11096;51.338;12.524;2023-01-10T09:53:41;100386.22;;;5.63;nan
21863;BME280;11096;51.338;12.524;2023-01-10T09:56:12;100394.47;;;5.71;nan
21863;BME280;11096;51.338;12.524;2023-01-10T09:58:39;100383.25;;;5.72;nan
21863;BME280;11096;51.338;12.524;2023-01-10T10:01:18;100392.31;;;5.81;nan
21863;BME280;11096;51.338;12.524;2023-01-10T10:06:29;100395.00;;;5.78;nan
21863;BME280;11096;51.338;12.524;2023-01-10T10:08:56;100400.16;;;5.78;nan
21863;BME280;11096;51.338;12.524;2023-01-10T10:11:36;100410.44;;;5.79;nan
21863;BME280;11096;51.338;12.524;2023-01-10T10:30:50;100439.06;;;5.92;nan
21863;BME280;11096;51.338;12.524;2023-01-10T10:36:02;100431.69;;;5.85;nan
21863;BME280;11096;51.338;12.524;2023-01-10T10:38:32;100422.91;;;5.89;nan
21863;BME280;11096;51.338;12.524;2023-01-10T10:41:00;100420.19;;;5.92;nan
21863;BME280;11096;51.338;12.524;2023-01-10T10:43:32;100421.28;;;6.07;nan
21863;BME280;11096;51.338;12.524;2023-01-10T10:46:07;100419.25;;;6.13;nan
21863;BME280;11096;51.338;12.524;2023-01-10T10:51:33;100401.75;;;6.01;nan
21863;BME280;11096;51.338;12.524;2023-01-10T10:54:03;100395.72;;;6.19;nan
21863;BME280;11096;51.338;12.524;2023-01-10T10:56:30;100388.50;;;6.28;nan
21863;BME280;11096;51.338;12.524;2023-01-10T10:58:58;100388.66;;;6.59;nan
21863;BME280;11096;51.338;12.524;2023-01-10T11:01:24;100397.50;;;6.55;nan
21863;BME280;11096;51.338;12.524;2023-01-10T11:03:57;100412.75;;;6.23;nan
21863;BME280;11096;51.338;12.524;2023-01-10T11:06:24;100418.19;;;6.17;nan
21863;BME280;11096;51.338;12.524;2023-01-10T11:08:54;100412.13;;;6.18;nan
21863;BME280;11096;51.338;12.524;2023-01-10T11:11:28;100394.34;;;6.12;nan
21863;BME280;11096;51.338;12.524;2023-01-10T11:13:57;100406.47;;;6.10;nan
21863;BME280;11096;51.338;12.524;2023-01-10T11:16:31;100416.53;;;6.16;nan
21863;BME280;11096;51.338;12.524;2023-01-10T11:21:52;100419.09;;;6.16;nan
21863;BME280;11096;51.338;12.524;2023-01-10T11:24:28;100420.59;;;6.03;nan
21863;BME280;11096;51.338;12.524;2023-01-10T11:26:57;100414.72;;;6.18;nan
21863;BME280;11096;51.338;12.524;2023-01-10T11:31:52;100416.88;;;6.28;nan
21863;BME280;11096;51.338;12.524;2023-01-10T11:34:29;100423.94;;;6.41;nan
21863;BME280;11096;51.338;12.524;2023-01-10T11:36:59;100436.44;;;6.51;nan
21863;BME280;11096;51.338;12.524;2023-01-10T11:39:26;100431.13;;;6.35;nan
21863;BME280;11096;51.338;12.524;2023-01-10T11:41:51;100435.03;;;6.43;nan
21863;BME280;11096;51.338;12.524;2023-01-10T11:44:28;100431.16;;;6.71;nan
21863;BME280;11096;51.338;12.524;2023-01-10T11:46:56;100422.13;;;6.80;nan
21863;BME280;11096;51.338;12.524;2023-01-10T11:52:01;100434.75;;;7.03;nan
21863;BME280;11096;51.338;12.524;2023-01-10T11:54:28;100428.59;;;7.57;nan
21863;BME280;11096;51.338;12.524;2023-01-10T11:57:01;100428.66;;;7.88;nan
21863;BME280;11096;51.338;12.524;2023-01-10T11:59:28;100432.56;;;8.45;nan
21863;BME280;11096;51.338;12.524;2023-01-10T12:04:42;100423.84;;;7.98;nan
21863;BME280;11096;51.338;12.524;2023-01-10T12:07:10;100437.50;;;7.84;nan
21863;BME280;11096;51.338;12.524;2023-01-10T12:12:16;100447.28;;;7.11;nan
21863;BME280;11096;51.338;12.524;2023-01-10T12:14:44;100448.13;;;6.94;nan
21863;BME280;11096;51.338;12.524;2023-01-10T12:17:24;100453.56;;;6.71;nan
21863;BME280;11096;51.338;12.524;2023-01-10T12:19:55;100453.72;;;6.68;nan
21863;BME280;11096;51.338;12.524;2023-01-10T12:22:32;100458.84;;;6.50;nan
21863;BME280;11096;51.338;12.524;2023-01-10T12:25:03;100466.84;;;6.44;nan
21863;BME280;11096;51.338;12.524;2023-01-10T12:27:31;100455.56;;;6.47;nan
21863;BME280;11096;51.338;12.524;2023-01-10T12:30:03;100463.88;;;6.34;nan
21863;BME280;11096;51.338;12.524;2023-01-10T12:32:37;100461.06;;;6.39;nan
21863;BME280;11096;51.338;12.524;2023-01-10T12:35:11;100464.78;;;6.33;nan
21863;BME280;11096;51.338;12.524;2023-01-10T12:40:21;100467.56;;;6.29;nan
21863;BME280;11096;51.338;12.524;2023-01-10T12:43:03;100470.16;;;6.29;nan
21863;BME280;11096;51.338;12.524;2023-01-10T12:45:55;100474.84;;;6.20;nan
21863;BME280;11096;51.338;12.524;2023-01-10T12:48:45;100476.34;;;6.24;nan
21863;BME280;11096;51.338;12.524;2023-01-10T12:51:17;100479.69;;;6.27;nan
21863;BME280;11096;51.338;12.524;2023-01-10T12:53:56;100482.34;;;6.25;nan
21863;BME280;11096;51.338;12.524;2023-01-10T12:56:23;100484.25;;;6.21;nan
21863;BME280;11096;51.338;12.524;2023-01-10T12:58:55;100477.63;;;6.16;nan
21863;BME280;11096;51.338;12.524;2023-01-10T13:01:28;100483.41;;;6.21;nan
21863;BME280;11096;51.338;12.524;2023-01-10T13:04:02;100478.25;;;6.21;nan
21863;BME280;11096;51.338;12.524;2023-01-10T13:06:32;100481.66;;;6.21;nan
21863;BME280;11096;51.338;12.524;2023-01-10T13:09:03;100481.09;;;6.34;nan
21863;BME280;11096;51.338;12.524;2023-01-10T13:11:39;100477.47;;;6.38;nan
21863;BME280;11096;51.338;12.524;2023-01-10T13:14:10;100481.25;;;6.31;nan
21863;BME280;11096;51.338;12.524;2023-01-10T13:16:46;100476.72;;;6.36;nan
21863;BME280;11096;51.338;12.524;2023-01-10T13:21:40;100480.41;;;6.30;nan
21863;BME280;11096;51.338;12.524;2023-01-10T13:24:21;100476.97;;;6.30;nan
21863;BME280;11096;51.338;12.524;2023-01-10T13:26:57;100479.56;;;6.30;nan
21863;BME280;11096;51.338;12.524;2023-01-10T13:32:35;100471.19;;;6.24;nan
21863;BME280;11096;51.338;12.524;2023-01-10T13:35:12;100471.91;;;6.28;nan
21863;BME280;11096;51.338;12.524;2023-01-10T13:37:39;100479.66;;;6.28;nan
21863;BME280;11096;51.338;12.524;2023-01-10T13:40:06;100472.69;;;6.30;nan
21863;BME280;11096;51.338;12.524;2023-01-10T13:42:35;100476.97;;;6.30;nan
21863;BME280;11096;51.338;12.524;2023-01-10T13:45:25;100478.41;;;6.18;nan
21863;BME280;11096;51.338;12.524;2023-01-10T13:52:47;100484.19;;;6.23;nan
21863;BME280;11096;51.338;12.524;2023-01-10T14:03:53;100502.59;;;6.15;nan
21863;BME280;11096;51.338;12.524;2023-01-10T14:08:56;100502.44;;;6.18;nan
21863;BME280;11096;51.338;12.524;2023-01-10T14:11:25;100493.09;;;6.16;nan
21863;BME280;11096;51.338;12.524;2023-01-10T14:13:58;100499.34;;;6.10;nan
21863;BME280;11096;51.338;12.524;2023-01-10T14:18:55;100506.63;;;6.02;nan
21863;BME280;11096;51.338;12.524;2023-01-10T14:21:24;100494.34;;;6.07;nan
21863;BME280;11096;51.338;12.524;2023-01-10T14:23:52;100496.66;;;6.13;nan
21863;BME280;11096;51.338;12.524;2023-01-10T14:26:28;100507.19;;;6.09;nan
21863;BME280;11096;51.338;12.524;2023-01-10T14:28:55;100503.78;;;6.08;nan
21863;BME280;11096;51.338;12.524;2023-01-10T14:31:22;100508.31;;;6.03;nan
21863;BME280;11096;51.338;12.524;2023-01-10T14:33:50;100509.25;;;6.00;nan
21863;BME280;11096;51.338;12.524;2023-01-10T14:36:20;100510.94;;;6.01;nan
21863;BME280;11096;51.338;12.524;2023-01-10T14:38:49;100508.56;;;5.97;nan
21863;BME280;11096;51.338;12.524;2023-01-10T14:49:33;100501.06;;;5.91;nan
21863;BME280;11096;51.338;12.524;2023-01-10T14:52:12;100499.22;;;5.94;nan
21863;BME280;11096;51.338;12.524;2023-01-10T14:54:41;100498.50;;;5.91;nan
21863;BME280;11096;51.338;12.524;2023-01-10T14:57:18;100500.22;;;5.90;nan
21863;BME280;11096;51.338;12.524;2023-01-10T14:59:44;100502.34;;;5.80;nan
21863;BME280;11096;51.338;12.524;2023-01-10T15:02:19;100503.22;;;5.81;nan
21863;BME280;11096;51.338;12.524;2023-01-10T15:05:20;100506.44;;;5.86;nan
21863;BME280;11096;51.338;12.524;2023-01-10T15:07:46;100503.97;;;5.83;nan
21863;BME280;11096;51.338;12.524;2023-01-10T15:10:31;100497.63;;;5.71;nan
21863;BME280;11096;51.338;12.524;2023-01-10T15:13:01;100496.69;;;5.72;nan
21863;BME280;11096;51.338;12.524;2023-01-10T15:15:32;100498.50;;;5.70;nan
21863;BME280;11096;51.338;12.524;2023-01-10T15:17:59;100500.31;;;5.68;nan
21863;BME280;11096;51.338;12.524;2023-01-10T15:20:27;100497.72;;;5.68;nan
21863;BME280;11096;51.338;12.524;2023-01-10T15:22:58;100491.81;;;5.66;nan
21863;BME280;11096;51.338;12.524;2023-01-10T15:25:31;100494.66;;;5.60;nan
21863;BME280;11096;51.338;12.524;2023-01-10T15:27:57;100490.25;;;5.62;nan
21863;BME280;11096;51.338;12.524;2023-01-10T15:30:29;100492.97;;;5.59;nan
21863;BME280;11096;51.338;12.524;2023-01-10T15:33:16;100485.25;;;5.59;nan
21863;BME280;11096;51.338;12.524;2023-01-10T15:35:43;100481.63;;;5.43;nan
21863;BME280;11096;51.338;12.524;2023-01-10T15:38:14;100492.91;;;5.40;nan
21863;BME280;11096;51.338;12.524;2023-01-10T15:40:40;100486.94;;;5.40;nan
21863;BME280;11096;51.338;12.524;2023-01-10T15:43:23;100493.81;;;5.39;nan
21863;BME280;11096;51.338;12.524;2023-01-10T15:45:49;100499.16;;;5.34;nan
21863;BME280;11096;51.338;12.524;2023-01-10T15:56:23;100489.38;;;5.22;nan
21863;BME280;11096;51.338;12.524;2023-01-10T15:58:51;100488.50;;;5.22;nan
21863;BME280;11096;51.338;12.524;2023-01-10T16:01:16;100480.72;;;5.23;nan
21863;BME280;11096;51.338;12.524;2023-01-10T16:03:48;100499.59;;;5.24;nan
21863;BME280;11096;51.338;12.524;2023-01-10T16:08:58;100499.50;;;5.27;nan
21863;BME280;11096;51.338;12.524;2023-01-10T16:11:47;100494.38;;;5.25;nan
21863;BME280;11096;51.338;12.524;2023-01-10T16:14:32;100493.56;;;5.25;nan
21863;BME280;11096;51.338;12.524;2023-01-10T16:17:01;100492.03;;;5.19;nan
21863;BME280;11096;51.338;12.524;2023-01-10T16:19:27;100488.78;;;5.15;nan
21863;BME280;11096;51.338;12.524;2023-01-10T16:21:54;100482.13;;;5.10;nan
21863;BME280;11096;51.338;12.524;2023-01-10T16:24:28;100484.00;;;5.06;nan
21863;BME280;11096;51.338;12.524;2023-01-10T16:26:55;100482.47;;;5.02;nan
21863;BME280;11096;51.338;12.524;2023-01-10T16:29:22;100486.19;;;4.95;nan
21863;BME280;11096;51.338;12.524;2023-01-10T16:31:48;100478.75;;;4.87;nan
21863;BME280;11096;51.338;12.524;2023-01-10T16:34:16;100485.22;;;4.76;nan
21863;BME280;11096;51.338;12.524;2023-01-10T16:36:42;100485.56;;;4.66;nan
21863;BME280;11096;51.338;12.524;2023-01-10T16:39:19;100484.00;;;4.62;nan
21863;BME280;11096;51.338;12.524;2023-01-10T16:41:45;100484.47;;;4.50;nan
21863;BME280;11096;51.338;12.524;2023-01-10T16:44:31;100489.13;;;4.40;nan
21863;BME280;11096;51.338;12.524;2023-01-10T16:46:57;100486.97;;;4.29;nan
21863;BME280;11096;51.338;12.524;2023-01-10T16:49:23;100491.50;;;4.23;nan
21863;BME280;11096;51.338;12.524;2023-01-10T16:51:48;100479.88;;;4.13;nan
21863;BME280;11096;51.338;12.524;2023-01-10T16:54:16;100489.50;;;4.07;nan
21863;BME280;11096;51.338;12.524;2023-01-10T16:56:44;100491.56;;;3.98;nan
21863;BME280;11096;51.338;12.524;2023-01-10T16:59:11;100492.75;;;3.89;nan
21863;BME280;11096;51.338;12.524;2023-01-10T17:01:39;100498.09;;;3.83;nan
21863;BME280;11096;51.338;12.524;2023-01-10T17:04:07;100505.03;;;3.81;nan
21863;BME280;11096;51.338;12.524;2023-01-10T17:06:33;100507.19;;;3.68;nan
21863;BME280;11096;51.338;12.524;2023-01-10T17:08:59;100500.41;;;3.65;nan
21863;BME280;11096;51.338;12.524;2023-01-10T17:11:28;100493.63;;;3.64;nan
21863;BME280;11096;51.338;12.524;2023-01-10T17:13:55;100499.47;;;3.68;nan
21863;BME280;11096;51.338;12.524;2023-01-10T17:16:21;100500.03;;;3.76;nan
21863;BME280;11096;51.338;12.524;2023-01-10T17:18:47;100494.69;;;3.82;nan
21863;BME280;11096;51.338;12.524;2023-01-10T17:21:14;100495.31;;;3.89;nan
21863;BME280;11096;51.338;12.524;2023-01-10T17:23:41;100496.66;;;3.99;nan
21863;BME280;11096;51.338;12.524;2023-01-10T17:26:06;100490.50;;;4.03;nan
21863;BME280;11096;51.338;12.524;2023-01-10T17:28:32;100492.91;;;4.08;nan
21863;BME280;11096;51.338;12.524;2023-01-10T17:30:58;100485.94;;;4.12;nan
21863;BME280;11096;51.338;12.524;2023-01-10T17:33:24;100480.63;;;4.16;nan
21863;BME280;11096;51.338;12.524;2023-01-10T17:35:54;100478.81;;;4.18;nan
21863;BME280;11096;51.338;12.524;2023-01-10T17:38:21;100478.72;;;4.21;nan
21863;BME280;11096;51.338;12.524;2023-01-10T17:40:47;100469.97;;;4.25;nan
21863;BME280;11096;51.338;12.524;2023-01-10T17:43:14;100484.66;;;4.23;nan
21863;BME280;11096;51.338;12.524;2023-01-10T17:45:45;100491.41;;;4.26;nan
21863;BME280;11096;51.338;12.524;2023-01-10T17:48:12;100496.44;;;4.29;nan